createdAt,value
2019-03-09T00:01:37.637Z,100725.18
2019-03-09T00:06:31.498Z,100718.67
2019-03-09T00:11:25.500Z,100708.96
2019-03-09T00:16:19.449Z,100697.28
2019-03-09T00:21:13.838Z,100688.13
2019-03-09T00:26:15.607Z,100673.69
2019-03-09T00:31:11.498Z,100675.75
2019-03-09T00:36:05.315Z,100668.54
2019-03-09T00:40:59.207Z,100668.05
2019-03-09T00:45:53.067Z,100666.92
2019-03-09T00:50:46.930Z,100662.66
2019-03-09T00:55:40.909Z,100660.19
2019-03-09T01:00:34.941Z,100652.73
2019-03-09T01:05:28.905Z,100639.65
2019-03-09T01:10:22.871Z,100631.78
2019-03-09T01:15:16.742Z,100628.59
2019-03-09T01:20:13.211Z,100619.63
2019-03-09T01:25:08.337Z,100612.06
2019-03-09T01:30:04.095Z,100610.79
2019-03-09T01:34:57.956Z,100609.03
2019-03-09T01:39:51.910Z,100586.50
2019-03-09T01:44:45.775Z,100581.50
2019-03-09T01:49:39.742Z,100575.28
2019-03-09T01:54:33.672Z,100566.23
2019-03-09T01:59:27.516Z,100550.62
2019-03-09T02:04:21.532Z,100552.08
2019-03-09T02:09:15.395Z,100531.91
2019-03-09T02:14:09.232Z,100540.78
2019-03-09T02:19:03.113Z,100535.47
2019-03-09T02:23:56.937Z,100522.13
2019-03-09T02:28:50.775Z,100538.49
2019-03-09T02:33:44.627Z,100529.95
2019-03-09T02:38:46.509Z,100527.09
2019-03-09T02:43:40.352Z,100537.30
2019-03-09T02:48:34.241Z,100522.53
2019-03-09T02:53:28.052Z,100518.27
2019-03-09T02:58:21.929Z,100521.52
2019-03-09T03:03:15.921Z,100523.34
2019-03-09T03:08:09.786Z,100508.56
2019-03-09T03:13:03.651Z,100522.93
2019-03-09T03:17:57.497Z,100533.77
2019-03-09T03:22:51.351Z,100527.87
2019-03-09T03:27:45.212Z,100518.26
2019-03-09T03:32:39.159Z,100519.73
2019-03-09T03:37:33.026Z,100536.20
2019-03-09T03:42:26.890Z,100542.58
2019-03-09T03:47:20.833Z,100532.73
2019-03-09T03:52:14.709Z,100536.70
2019-03-09T03:57:08.562Z,100533.47
2019-03-09T04:02:02.520Z,100542.34
2019-03-09T04:06:56.490Z,100537.30
2019-03-09T04:11:50.462Z,100536.28
2019-03-09T04:16:44.317Z,100544.23
2019-03-09T04:21:38.198Z,100544.23
2019-03-09T04:26:32.143Z,100560.85
2019-03-09T04:31:26.120Z,100558.94
2019-03-09T04:36:19.939Z,100561.48
2019-03-09T04:41:13.799Z,100586.14
2019-03-09T04:46:07.693Z,100587.85
2019-03-09T04:51:01.566Z,100607.31
2019-03-09T04:55:55.422Z,100615.51
2019-03-09T05:00:49.280Z,100607.95
2019-03-09T05:05:43.244Z,100595.67
2019-03-09T05:10:43.590Z,100619.50
2019-03-09T05:15:37.458Z,100644.20
2019-03-09T05:20:31.315Z,100652.52
2019-03-09T05:25:25.164Z,100639.52
2019-03-09T05:30:36.730Z,100618.59
2019-03-09T05:35:30.626Z,100639.34
2019-03-09T05:40:24.493Z,100655.00
2019-03-09T05:45:18.340Z,100669.33
2019-03-09T05:50:12.193Z,100688.52
2019-03-09T05:55:09.580Z,100688.52
2019-03-09T06:00:07.272Z,100684.78
2019-03-09T06:05:01.141Z,100683.31
2019-03-09T06:09:55.298Z,100661.17
2019-03-09T06:14:49.139Z,100662.60
2019-03-09T06:19:42.997Z,100660.15
2019-03-09T06:24:36.852Z,100664.36
2019-03-09T06:29:30.700Z,100685.47
2019-03-09T06:34:24.568Z,100686.60
2019-03-09T06:39:18.428Z,100694.21
2019-03-09T06:44:12.297Z,100714.59
2019-03-09T06:49:06.147Z,100743.41
2019-03-09T06:54:00.016Z,100748.25
2019-03-09T06:58:53.890Z,100746.55
2019-03-09T07:03:47.871Z,100758.60
2019-03-09T07:08:41.832Z,100781.89
2019-03-09T07:13:35.688Z,100796.87
2019-03-09T07:18:30.656Z,100791.91
2019-03-09T07:23:24.702Z,100788.88
2019-03-09T07:28:18.557Z,100789.02
2019-03-09T07:33:12.422Z,100791.80
2019-03-09T07:38:06.397Z,100809.15
2019-03-09T07:43:00.374Z,100817.98
2019-03-09T07:47:54.336Z,100825.10
2019-03-09T07:52:48.199Z,100825.45
2019-03-09T07:57:42.170Z,100826.27
2019-03-09T08:02:36.049Z,100827.96
2019-03-09T08:07:29.926Z,100833.05
2019-03-09T08:12:24.267Z,100822.61
2019-03-09T08:17:18.378Z,100832.05
2019-03-09T08:22:12.235Z,100842.58
2019-03-09T08:27:06.116Z,100856.55
2019-03-09T08:31:59.971Z,100857.84
2019-03-09T08:36:53.942Z,100852.04
2019-03-09T08:41:47.911Z,100853.09
2019-03-09T08:46:41.802Z,100832.27
2019-03-09T08:51:35.783Z,100819.96
2019-03-09T08:56:29.868Z,100824.91
2019-03-09T09:01:23.806Z,100824.19
2019-03-09T09:06:17.669Z,100827.81
2019-03-09T09:11:11.602Z,100836.86
2019-03-09T09:16:05.455Z,100861.87
2019-03-09T09:20:59.324Z,100856.86
2019-03-09T09:25:53.305Z,100855.56
2019-03-09T09:30:47.200Z,100852.52
2019-03-09T09:35:41.075Z,100820.18
2019-03-09T09:40:35.032Z,100821.13
2019-03-09T09:45:29.090Z,100811.84
2019-03-09T09:50:23.151Z,100803.06
2019-03-09T09:55:18.283Z,100814.06
2019-03-09T10:00:17.937Z,100828.09
2019-03-09T10:05:11.946Z,100836.79
2019-03-09T10:10:09.435Z,100820.48
2019-03-09T10:15:07.138Z,100806.64
2019-03-09T10:20:01.009Z,100808.23
2019-03-09T10:24:55.003Z,100801.03
2019-03-09T10:29:48.965Z,100816.27
2019-03-09T10:34:42.845Z,100820.70
2019-03-09T10:39:36.724Z,100813.45
2019-03-09T10:44:30.759Z,100797.59
2019-03-09T10:49:24.612Z,100816.86
2019-03-09T10:54:18.502Z,100803.30
2019-03-09T10:59:12.369Z,100796.60
2019-03-09T11:04:06.486Z,100769.56
2019-03-09T11:09:00.451Z,100748.05
2019-03-09T11:13:54.440Z,100752.31
2019-03-09T11:18:48.288Z,100745.68
2019-03-09T11:23:42.530Z,100767.00
2019-03-09T11:28:36.805Z,100779.13
2019-03-09T11:33:30.739Z,100775.97
2019-03-09T11:38:24.625Z,100769.70
2019-03-09T11:43:18.568Z,100768.03
2019-03-09T11:48:12.540Z,100746.73
2019-03-09T11:53:06.435Z,100715.77
2019-03-09T11:58:00.432Z,100719.81
2019-03-09T12:02:54.453Z,100701.40
2019-03-09T12:07:48.424Z,100647.25
2019-03-09T12:12:42.417Z,100602.33
2019-03-09T12:17:36.285Z,100581.89
2019-03-09T12:22:30.445Z,100589.81
2019-03-09T12:27:24.342Z,100601.04
2019-03-09T12:32:18.235Z,100592.39
2019-03-09T12:37:12.251Z,100618.73
2019-03-09T12:42:06.237Z,100621.50
2019-03-09T12:47:03.150Z,100584.70
2019-03-09T12:51:59.057Z,100589.89
2019-03-09T12:56:52.941Z,100554.24
2019-03-09T13:01:46.991Z,100556.04
2019-03-09T13:06:40.980Z,100549.19
2019-03-09T13:11:34.924Z,100527.47
2019-03-09T13:16:29.241Z,100551.77
2019-03-09T13:21:23.073Z,100518.91
2019-03-09T13:26:17.083Z,100554.16
2019-03-09T13:31:10.963Z,100528.20
2019-03-09T13:36:05.950Z,100511.59
2019-03-09T13:41:00.048Z,100499.98
2019-03-09T13:45:53.922Z,100493.92
2019-03-09T13:50:47.897Z,100501.22
2019-03-09T13:55:41.827Z,100535.68
2019-03-09T14:00:40.540Z,100502.41
2019-03-09T14:05:31.524Z,100538.84
2019-03-09T14:10:25.449Z,100498.75
2019-03-09T14:15:19.406Z,100510.92
2019-03-09T14:20:15.229Z,100490.88
2019-03-09T14:25:11.014Z,100478.73
2019-03-09T14:30:15.745Z,100521.19
2019-03-09T14:35:09.752Z,100496.30
2019-03-09T14:40:06.330Z,100469.42
2019-03-09T14:45:00.264Z,100485.08
2019-03-09T14:49:54.268Z,100496.14
2019-03-09T14:54:48.280Z,100466.70
2019-03-09T14:59:42.328Z,100471.04
2019-03-09T15:04:36.352Z,100480.27
2019-03-09T15:09:30.276Z,100472.36
2019-03-09T15:14:24.250Z,100469.48
2019-03-09T15:19:18.194Z,100459.24
2019-03-09T15:24:12.102Z,100459.24
2019-03-09T15:29:05.980Z,100438.89
2019-03-09T15:33:59.942Z,100436.02
2019-03-09T15:38:53.856Z,100448.38
2019-03-09T15:43:47.846Z,100466.27
2019-03-09T15:48:41.862Z,100460.75
2019-03-09T15:53:35.821Z,100507.30
2019-03-09T15:58:29.764Z,100488.47
2019-03-09T16:03:23.768Z,100470.27
2019-03-09T16:08:17.651Z,100530.28
2019-03-09T16:13:11.666Z,100517.17
2019-03-09T16:18:05.518Z,100540.51
2019-03-09T16:22:59.542Z,100591.23
2019-03-09T16:33:49.858Z,100576.94
2019-03-09T16:38:43.756Z,100598.27
2019-03-09T16:43:37.626Z,100602.07
2019-03-09T16:48:31.489Z,100583.51
2019-03-09T16:53:25.477Z,100718.34
2019-03-09T16:58:19.403Z,100760.05
2019-03-09T17:03:13.398Z,100752.69
2019-03-09T17:08:07.442Z,100773.27
2019-03-09T17:13:01.448Z,100794.21
2019-03-09T17:17:55.666Z,100810.56
2019-03-09T17:22:49.751Z,100835.33
2019-03-09T17:27:43.639Z,100837.77
2019-03-09T17:32:37.614Z,100846.92
2019-03-09T17:37:31.505Z,100869.88
2019-03-09T17:42:25.377Z,100885.58
2019-03-09T17:47:19.351Z,100891.69
2019-03-09T17:52:13.371Z,100898.89
2019-03-09T17:57:07.360Z,100905.01
2019-03-09T18:02:01.365Z,100912.17
2019-03-09T18:06:55.295Z,100926.70
2019-03-09T18:11:49.168Z,100934.12
2019-03-09T18:16:52.300Z,100948.34
2019-03-09T18:21:38.851Z,100968.13
2019-03-09T18:26:32.837Z,100980.77
2019-03-09T18:31:26.842Z,100992.09
2019-03-09T18:36:20.716Z,100989.72
2019-03-09T18:41:14.718Z,101002.77
2019-03-09T18:46:08.604Z,101023.87
2019-03-09T18:51:02.613Z,101024.94
2019-03-09T18:55:59.428Z,101020.63
2019-03-09T19:00:52.228Z,101037.66
2019-03-09T19:05:46.137Z,101032.89
2019-03-09T19:10:39.989Z,101038.98
2019-03-09T19:15:33.896Z,101053.78
2019-03-09T19:20:27.860Z,101073.22
2019-03-09T19:25:21.898Z,101076.81
2019-03-09T19:30:21.124Z,101073.75
2019-03-09T19:35:15.205Z,101071.40
2019-03-09T19:40:17.491Z,101068.14
2019-03-09T19:45:14.100Z,101094.51
2019-03-09T19:50:18.512Z,101096.88
2019-03-09T19:55:12.828Z,101108.02
2019-03-09T20:00:10.290Z,101115.22
2019-03-09T20:05:07.461Z,101120.80
2019-03-09T20:10:01.807Z,101122.04
2019-03-09T20:14:55.668Z,101123.44
2019-03-09T20:19:49.646Z,101110.89
2019-03-09T20:24:43.543Z,101119.73
2019-03-09T20:29:37.443Z,101108.88
2019-03-09T20:34:31.294Z,101119.85
2019-03-09T20:39:25.310Z,101120.69
2019-03-09T20:44:19.287Z,101113.67
2019-03-09T20:49:13.277Z,101119.80
2019-03-09T20:54:07.134Z,101132.84
2019-03-09T20:59:00.986Z,101136.63
2019-03-09T21:03:54.986Z,101135.53
2019-03-09T21:08:48.951Z,101133.05
2019-03-09T21:13:42.908Z,101136.83
2019-03-09T21:18:37.022Z,101139.54
2019-03-09T21:23:30.988Z,101137.55
2019-03-09T21:28:24.840Z,101141.09
2019-03-09T21:33:18.738Z,101145.66
2019-03-09T21:38:12.635Z,101144.99
2019-03-09T21:43:06.529Z,101149.33
2019-03-09T21:48:00.369Z,101141.59
2019-03-09T21:52:54.286Z,101136.78
2019-03-09T21:57:48.205Z,101134.22
2019-03-09T22:02:42.226Z,101144.03
2019-03-09T22:07:36.160Z,101135.55
2019-03-09T22:12:30.140Z,101136.28
2019-03-09T22:17:24.028Z,101140.73
2019-03-09T22:22:17.904Z,101143.69
2019-03-09T22:27:11.776Z,101146.88
2019-03-09T22:32:05.765Z,101138.41
2019-03-09T22:36:59.653Z,101132.36
2019-03-09T22:41:53.505Z,101139.04
2019-03-09T22:46:47.459Z,101138.37
2019-03-09T22:51:41.338Z,101140.59
2019-03-09T22:56:35.374Z,101142.66
2019-03-09T23:01:30.242Z,101138.56
2019-03-09T23:06:24.250Z,101132.59
2019-03-09T23:11:18.110Z,101126.91
2019-03-09T23:16:12.028Z,101133.44
2019-03-09T23:21:05.995Z,101131.75
2019-03-09T23:25:59.854Z,101125.44
2019-03-09T23:30:54.576Z,101110.69
2019-03-09T23:35:48.890Z,101098.98
2019-03-09T23:40:42.872Z,101106.77
2019-03-09T23:45:37.020Z,101106.09
2019-03-09T23:50:31.780Z,101110.69
2019-03-09T23:55:25.974Z,101103.71
